Airfield :
LOGIN :

Register | Disclaimer

   EN    FR    IT 

 










Legend :    VFR   Marginal VFR   IFR   Intensive IFR   Very Intensive IFR
Visi :
Ceiling :
>= 8 km
>= 3000ft
5 to 8 km
1000 to 3000 ft
1500m to 5 km
500 to 1000 ft
800 to 1500m
200 to 500 ft
< 800m
< 200 ft
Symbols :   Thunderstorms  Fog  Heavy snow  Heavy precipitations  Wind > 20 kt
SIGMETs :     Misc.  Thunderstorms  Icing  Turbulence  Mountain Waves  Volcanic Ashes







- Airport Elevation : 7 ft
- IATA code : POW


LJPZ - Portoroz

CURRENT METAR :
  • 261230Z 16009KT 110V200 9999 FEW011 BKN041 13/08 Q1018

EXPIRED METARs :
  • 261200Z 06007KT 010V100 9999 FEW020 BKN045 14/03 Q1017
  • 261130Z 36003KT 9999 FEW020 BKN045 13/10 Q1018
  • 261100Z VRB01KT 9999 SCT020 BKN040 13/11 Q1017
  • 261030Z 32004KT 9999 FEW015 BKN028 13/11 Q1017
  • 261000Z 33004KT 290V010 9999 SCT015 BKN025 14/11 Q1017

TAF TAF LJPZ
Valid from the 26 at 12:00 until the 26 at 21:00 UTC


261100Z 2612/2621 06005KT 9999 FEW050 SCT060
TEMPO 2612/2614 17010KT -RA BKN020 OVC060
BECMG 2614/2615 06010G20KT CAVOK
No reported NOTAMs for that airfield.



MET'MAP, your aeronautical weather chart ! - Copyright ORBIFLY December 2007 - Disclaimer

ORBIFLY MET'MAP TEAM :

Programming & Development : Alexandra Zaïnal
Concept & Development : Baudouin d'Aumeries
Co-Development & Prog : Marc-Olivier Méhu
Technical & hardware support : Manuel Goepfert

Contact : metmap@orbifly.com




SOURCES & CREDITS :

   NOAA